sensor_id;sensor_type;location;lat;lon;timestamp;P1;durP1;ratioP1;P2;durP2;ratioP2
6598;SDS011;3335;43.198;27.918;2022-09-20T00:00:34;7.37;;;1.53;;
6598;SDS011;3335;43.198;27.918;2022-09-20T00:03:02;3.47;;;2.27;;
6598;SDS011;3335;43.198;27.918;2022-09-20T00:05:39;1.77;;;1.63;;
6598;SDS011;3335;43.198;27.918;2022-09-20T00:08:13;2.50;;;1.63;;
6598;SDS011;3335;43.198;27.918;2022-09-20T00:10:41;1.60;;;1.50;;
6598;SDS011;3335;43.198;27.918;2022-09-20T00:13:10;1.73;;;1.20;;
6598;SDS011;3335;43.198;27.918;2022-09-20T00:15:41;5.07;;;1.30;;
6598;SDS011;3335;43.198;27.918;2022-09-20T00:18:08;1.50;;;1.20;;
6598;SDS011;3335;43.198;27.918;2022-09-20T00:20:42;1.53;;;1.43;;
6598;SDS011;3335;43.198;27.918;2022-09-20T00:23:12;1.53;;;1.13;;
6598;SDS011;3335;43.198;27.918;2022-09-20T00:25:39;1.80;;;1.20;;
6598;SDS011;3335;43.198;27.918;2022-09-20T00:28:06;1.00;;;1.00;;
6598;SDS011;3335;43.198;27.918;2022-09-20T00:30:35;1.83;;;1.13;;
6598;SDS011;3335;43.198;27.918;2022-09-20T00:33:02;4.77;;;1.10;;
6598;SDS011;3335;43.198;27.918;2022-09-20T00:35:32;1.53;;;1.40;;
6598;SDS011;3335;43.198;27.918;2022-09-20T00:37:58;1.57;;;1.23;;
6598;SDS011;3335;43.198;27.918;2022-09-20T00:40:42;1.20;;;1.10;;
6598;SDS011;3335;43.198;27.918;2022-09-20T00:43:45;2.60;;;1.10;;
6598;SDS011;3335;43.198;27.918;2022-09-20T00:46:37;1.20;;;1.10;;
6598;SDS011;3335;43.198;27.918;2022-09-20T00:49:12;3.40;;;1.57;;
6598;SDS011;3335;43.198;27.918;2022-09-20T00:51:44;2.10;;;1.50;;
6598;SDS011;3335;43.198;27.918;2022-09-20T00:54:15;3.20;;;1.17;;
6598;SDS011;3335;43.198;27.918;2022-09-20T00:56:47;1.30;;;1.20;;
6598;SDS011;3335;43.198;27.918;2022-09-20T00:59:14;1.20;;;1.10;;
6598;SDS011;3335;43.198;27.918;2022-09-20T01:01:46;1.83;;;1.13;;
6598;SDS011;3335;43.198;27.918;2022-09-20T01:04:17;1.80;;;1.00;;
6598;SDS011;3335;43.198;27.918;2022-09-20T01:06:48;5.57;;;1.20;;
6598;SDS011;3335;43.198;27.918;2022-09-20T01:09:20;2.00;;;1.20;;
6598;SDS011;3335;43.198;27.918;2022-09-20T01:11:49;1.70;;;1.23;;
6598;SDS011;3335;43.198;27.918;2022-09-20T01:14:17;1.20;;;1.10;;
6598;SDS011;3335;43.198;27.918;2022-09-20T01:16:51;4.87;;;1.27;;
6598;SDS011;3335;43.198;27.918;2022-09-20T01:19:23;1.40;;;1.20;;
6598;SDS011;3335;43.198;27.918;2022-09-20T01:21:56;1.30;;;1.20;;
6598;SDS011;3335;43.198;27.918;2022-09-20T01:24:25;1.30;;;1.20;;
6598;SDS011;3335;43.198;27.918;2022-09-20T01:27:06;3.33;;;1.30;;
6598;SDS011;3335;43.198;27.918;2022-09-20T01:29:51;1.33;;;1.10;;
6598;SDS011;3335;43.198;27.918;2022-09-20T01:32:31;2.00;;;1.00;;
6598;SDS011;3335;43.198;27.918;2022-09-20T01:35:07;3.10;;;1.17;;
6598;SDS011;3335;43.198;27.918;2022-09-20T01:37:38;1.23;;;1.13;;
6598;SDS011;3335;43.198;27.918;2022-09-20T01:40:16;2.37;;;1.10;;
6598;SDS011;3335;43.198;27.918;2022-09-20T01:42:49;4.23;;;1.10;;
6598;SDS011;3335;43.198;27.918;2022-09-20T01:45:26;1.30;;;1.20;;
6598;SDS011;3335;43.198;27.918;2022-09-20T01:47:58;3.33;;;1.20;;
6598;SDS011;3335;43.198;27.918;2022-09-20T01:50:36;3.50;;;1.40;;
6598;SDS011;3335;43.198;27.918;2022-09-20T01:56:29;1.73;;;1.00;;
6598;SDS011;3335;43.198;27.918;2022-09-20T01:59:27;2.50;;;1.20;;
6598;SDS011;3335;43.198;27.918;2022-09-20T02:11:26;0.97;;;0.90;;
6598;SDS011;3335;43.198;27.918;2022-09-20T02:14:03;2.43;;;1.00;;
6598;SDS011;3335;43.198;27.918;2022-09-20T02:16:43;1.23;;;0.83;;
6598;SDS011;3335;43.198;27.918;2022-09-20T02:19:29;1.27;;;1.00;;
6598;SDS011;3335;43.198;27.918;2022-09-20T02:22:15;3.70;;;1.00;;
6598;SDS011;3335;43.198;27.918;2022-09-20T02:24:52;0.80;;;0.80;;
6598;SDS011;3335;43.198;27.918;2022-09-20T02:27:29;1.23;;;1.10;;
6598;SDS011;3335;43.198;27.918;2022-09-20T02:30:12;2.03;;;1.00;;
6598;SDS011;3335;43.198;27.918;2022-09-20T02:32:55;0.90;;;0.90;;
6598;SDS011;3335;43.198;27.918;2022-09-20T02:35:37;0.93;;;0.90;;
6598;SDS011;3335;43.198;27.918;2022-09-20T02:38:24;0.83;;;0.83;;
6598;SDS011;3335;43.198;27.918;2022-09-20T02:41:18;2.00;;;1.10;;
6598;SDS011;3335;43.198;27.918;2022-09-20T02:43:55;0.80;;;0.80;;
6598;SDS011;3335;43.198;27.918;2022-09-20T02:46:29;1.10;;;1.00;;
6598;SDS011;3335;43.198;27.918;2022-09-20T02:49:02;1.97;;;1.20;;
6598;SDS011;3335;43.198;27.918;2022-09-20T02:51:38;1.10;;;1.10;;
6598;SDS011;3335;43.198;27.918;2022-09-20T02:54:10;1.60;;;1.40;;
6598;SDS011;3335;43.198;27.918;2022-09-20T02:56:50;1.60;;;1.50;;
6598;SDS011;3335;43.198;27.918;2022-09-20T02:59:26;1.20;;;1.10;;
6598;SDS011;3335;43.198;27.918;2022-09-20T03:02:04;1.63;;;1.17;;
6598;SDS011;3335;43.198;27.918;2022-09-20T03:04:43;1.30;;;1.20;;
6598;SDS011;3335;43.198;27.918;2022-09-20T03:07:24;1.30;;;1.20;;
6598;SDS011;3335;43.198;27.918;2022-09-20T03:10:04;1.40;;;1.30;;
6598;SDS011;3335;43.198;27.918;2022-09-20T03:12:39;1.93;;;1.20;;
6598;SDS011;3335;43.198;27.918;2022-09-20T03:15:15;1.20;;;1.03;;
6598;SDS011;3335;43.198;27.918;2022-09-20T03:17:51;1.00;;;1.00;;
6598;SDS011;3335;43.198;27.918;2022-09-20T03:20:29;1.60;;;1.10;;
6598;SDS011;3335;43.198;27.918;2022-09-20T03:23:08;0.93;;;0.93;;
6598;SDS011;3335;43.198;27.918;2022-09-20T03:25:46;0.90;;;0.90;;
6598;SDS011;3335;43.198;27.918;2022-09-20T03:28:25;1.30;;;1.20;;
6598;SDS011;3335;43.198;27.918;2022-09-20T03:31:05;6.20;;;1.27;;
6598;SDS011;3335;43.198;27.918;2022-09-20T03:33:45;1.50;;;1.40;;
6598;SDS011;3335;43.198;27.918;2022-09-20T03:36:27;1.63;;;1.20;;
6598;SDS011;3335;43.198;27.918;2022-09-20T03:39:26;1.60;;;1.50;;
6598;SDS011;3335;43.198;27.918;2022-09-20T03:42:12;1.60;;;1.47;;
6598;SDS011;3335;43.198;27.918;2022-09-20T03:44:56;3.03;;;1.43;;
6598;SDS011;3335;43.198;27.918;2022-09-20T03:48:04;1.77;;;1.50;;
6598;SDS011;3335;43.198;27.918;2022-09-20T03:50:50;1.80;;;1.70;;
6598;SDS011;3335;43.198;27.918;2022-09-20T03:53:30;2.00;;;1.80;;
6598;SDS011;3335;43.198;27.918;2022-09-20T03:56:21;2.37;;;1.40;;
6598;SDS011;3335;43.198;27.918;2022-09-20T03:59:10;2.17;;;1.60;;
6598;SDS011;3335;43.198;27.918;2022-09-20T04:02:10;2.70;;;1.50;;
6598;SDS011;3335;43.198;27.918;2022-09-20T04:04:52;2.20;;;1.77;;
6598;SDS011;3335;43.198;27.918;2022-09-20T04:07:25;4.13;;;1.50;;
6598;SDS011;3335;43.198;27.918;2022-09-20T04:10:23;1.53;;;1.43;;
6598;SDS011;3335;43.198;27.918;2022-09-20T04:13:11;2.87;;;1.70;;
6598;SDS011;3335;43.198;27.918;2022-09-20T04:15:55;2.23;;;1.80;;
6598;SDS011;3335;43.198;27.918;2022-09-20T04:18:32;2.10;;;1.90;;
6598;SDS011;3335;43.198;27.918;2022-09-20T04:21:06;1.70;;;1.60;;
6598;SDS011;3335;43.198;27.918;2022-09-20T04:23:42;3.07;;;1.60;;
6598;SDS011;3335;43.198;27.918;2022-09-20T04:26:17;3.93;;;2.23;;
6598;SDS011;3335;43.198;27.918;2022-09-20T04:28:52;3.00;;;1.73;;
6598;SDS011;3335;43.198;27.918;2022-09-20T04:31:28;1.73;;;1.63;;
6598;SDS011;3335;43.198;27.918;2022-09-20T04:34:01;5.07;;;1.70;;
6598;SDS011;3335;43.198;27.918;2022-09-20T04:36:36;2.47;;;1.47;;
6598;SDS011;3335;43.198;27.918;2022-09-20T04:39:25;3.23;;;1.77;;
6598;SDS011;3335;43.198;27.918;2022-09-20T04:42:09;2.40;;;1.90;;
6598;SDS011;3335;43.198;27.918;2022-09-20T04:45:20;4.40;;;1.67;;
6598;SDS011;3335;43.198;27.918;2022-09-20T04:48:26;1.63;;;1.53;;
6598;SDS011;3335;43.198;27.918;2022-09-20T04:57:26;1.93;;;1.73;;
6598;SDS011;3335;43.198;27.918;2022-09-20T05:00:18;1.70;;;1.60;;
6598;SDS011;3335;43.198;27.918;2022-09-20T05:02:54;2.10;;;1.80;;
6598;SDS011;3335;43.198;27.918;2022-09-20T05:08:58;2.40;;;2.13;;
6598;SDS011;3335;43.198;27.918;2022-09-20T05:11:51;3.87;;;1.87;;
6598;SDS011;3335;43.198;27.918;2022-09-20T05:17:36;3.03;;;1.93;;
6598;SDS011;3335;43.198;27.918;2022-09-20T05:20:21;2.30;;;2.10;;
6598;SDS011;3335;43.198;27.918;2022-09-20T05:26:15;3.47;;;2.07;;
6598;SDS011;3335;43.198;27.918;2022-09-20T05:28:52;2.83;;;2.00;;
6598;SDS011;3335;43.198;27.918;2022-09-20T05:31:27;3.67;;;2.13;;
6598;SDS011;3335;43.198;27.918;2022-09-20T05:34:08;4.13;;;2.23;;
6598;SDS011;3335;43.198;27.918;2022-09-20T05:36:48;4.33;;;2.23;;
6598;SDS011;3335;43.198;27.918;2022-09-20T05:39:32;5.63;;;1.87;;
6598;SDS011;3335;43.198;27.918;2022-09-20T05:42:09;3.17;;;2.30;;
6598;SDS011;3335;43.198;27.918;2022-09-20T05:44:52;1.80;;;1.57;;
6598;SDS011;3335;43.198;27.918;2022-09-20T05:47:24;7.70;;;1.93;;
6598;SDS011;3335;43.198;27.918;2022-09-20T05:50:14;2.60;;;2.00;;
6598;SDS011;3335;43.198;27.918;2022-09-20T05:52:58;3.27;;;1.63;;
6598;SDS011;3335;43.198;27.918;2022-09-20T05:55:51;2.37;;;1.60;;
6598;SDS011;3335;43.198;27.918;2022-09-20T05:58:38;4.47;;;2.97;;
6598;SDS011;3335;43.198;27.918;2022-09-20T06:01:18;1.70;;;1.60;;
6598;SDS011;3335;43.198;27.918;2022-09-20T06:03:51;1.77;;;1.60;;
6598;SDS011;3335;43.198;27.918;2022-09-20T06:06:27;1.70;;;1.60;;
6598;SDS011;3335;43.198;27.918;2022-09-20T06:09:03;3.67;;;1.90;;
6598;SDS011;3335;43.198;27.918;2022-09-20T06:11:53;2.10;;;1.97;;
6598;SDS011;3335;43.198;27.918;2022-09-20T06:14:36;2.97;;;2.37;;
6598;SDS011;3335;43.198;27.918;2022-09-20T06:17:17;4.93;;;1.90;;
6598;SDS011;3335;43.198;27.918;2022-09-20T06:19:51;2.33;;;1.70;;
6598;SDS011;3335;43.198;27.918;2022-09-20T06:22:37;4.53;;;2.57;;
6598;SDS011;3335;43.198;27.918;2022-09-20T06:25:14;2.70;;;1.70;;
6598;SDS011;3335;43.198;27.918;2022-09-20T06:27:46;3.43;;;1.60;;
6598;SDS011;3335;43.198;27.918;2022-09-20T06:30:17;3.67;;;2.23;;
6598;SDS011;3335;43.198;27.918;2022-09-20T06:32:51;4.30;;;1.70;;
6598;SDS011;3335;43.198;27.918;2022-09-20T06:35:19;3.93;;;1.63;;
6598;SDS011;3335;43.198;27.918;2022-09-20T06:37:51;7.53;;;1.73;;
6598;SDS011;3335;43.198;27.918;2022-09-20T06:40:42;5.23;;;2.03;;
6598;SDS011;3335;43.198;27.918;2022-09-20T06:43:29;1.80;;;1.70;;
6598;SDS011;3335;43.198;27.918;2022-09-20T06:45:56;3.40;;;1.77;;
6598;SDS011;3335;43.198;27.918;2022-09-20T06:48:23;4.27;;;1.80;;
6598;SDS011;3335;43.198;27.918;2022-09-20T06:50:50;4.27;;;1.83;;
6598;SDS011;3335;43.198;27.918;2022-09-20T06:53:20;1.83;;;1.63;;
6598;SDS011;3335;43.198;27.918;2022-09-20T06:55:53;2.57;;;1.67;;
6598;SDS011;3335;43.198;27.918;2022-09-20T06:58:20;2.00;;;1.77;;
6598;SDS011;3335;43.198;27.918;2022-09-20T07:00:47;6.23;;;1.80;;
6598;SDS011;3335;43.198;27.918;2022-09-20T07:03:14;3.50;;;2.07;;
6598;SDS011;3335;43.198;27.918;2022-09-20T07:05:42;1.90;;;1.63;;
6598;SDS011;3335;43.198;27.918;2022-09-20T07:08:09;2.80;;;1.90;;
6598;SDS011;3335;43.198;27.918;2022-09-20T07:10:37;4.00;;;1.70;;
6598;SDS011;3335;43.198;27.918;2022-09-20T07:13:05;2.10;;;1.90;;
6598;SDS011;3335;43.198;27.918;2022-09-20T07:15:32;4.93;;;2.70;;
6598;SDS011;3335;43.198;27.918;2022-09-20T07:18:00;2.40;;;1.80;;
6598;SDS011;3335;43.198;27.918;2022-09-20T07:20:27;4.40;;;1.70;;
6598;SDS011;3335;43.198;27.918;2022-09-20T07:22:54;3.47;;;1.77;;
6598;SDS011;3335;43.198;27.918;2022-09-20T07:25:21;1.83;;;1.60;;
6598;SDS011;3335;43.198;27.918;2022-09-20T07:27:49;3.90;;;1.83;;
6598;SDS011;3335;43.198;27.918;2022-09-20T07:30:17;1.50;;;1.40;;
6598;SDS011;3335;43.198;27.918;2022-09-20T07:32:45;1.87;;;1.60;;
6598;SDS011;3335;43.198;27.918;2022-09-20T07:35:12;2.40;;;1.73;;
6598;SDS011;3335;43.198;27.918;2022-09-20T07:37:40;3.10;;;1.80;;
6598;SDS011;3335;43.198;27.918;2022-09-20T07:40:08;3.10;;;1.60;;
6598;SDS011;3335;43.198;27.918;2022-09-20T07:42:36;6.33;;;1.93;;
6598;SDS011;3335;43.198;27.918;2022-09-20T07:45:06;1.53;;;1.40;;
6598;SDS011;3335;43.198;27.918;2022-09-20T07:47:33;5.17;;;1.97;;
6598;SDS011;3335;43.198;27.918;2022-09-20T07:50:00;3.37;;;1.60;;
6598;SDS011;3335;43.198;27.918;2022-09-20T07:52:28;4.63;;;1.53;;
6598;SDS011;3335;43.198;27.918;2022-09-20T07:54:55;2.10;;;1.90;;
6598;SDS011;3335;43.198;27.918;2022-09-20T07:57:22;2.30;;;1.40;;
6598;SDS011;3335;43.198;27.918;2022-09-20T07:59:49;2.10;;;1.50;;
6598;SDS011;3335;43.198;27.918;2022-09-20T08:02:17;5.23;;;1.80;;
6598;SDS011;3335;43.198;27.918;2022-09-20T08:04:44;1.63;;;1.53;;
6598;SDS011;3335;43.198;27.918;2022-09-20T08:07:14;3.23;;;1.93;;
6598;SDS011;3335;43.198;27.918;2022-09-20T08:09:41;2.07;;;1.93;;
6598;SDS011;3335;43.198;27.918;2022-09-20T08:12:08;2.27;;;1.60;;
6598;SDS011;3335;43.198;27.918;2022-09-20T08:14:35;1.87;;;1.77;;
6598;SDS011;3335;43.198;27.918;2022-09-20T08:17:02;2.77;;;1.80;;
6598;SDS011;3335;43.198;27.918;2022-09-20T08:19:30;5.90;;;1.70;;
6598;SDS011;3335;43.198;27.918;2022-09-20T08:21:57;3.43;;;1.67;;
6598;SDS011;3335;43.198;27.918;2022-09-20T08:24:24;1.73;;;1.63;;
6598;SDS011;3335;43.198;27.918;2022-09-20T08:26:51;3.47;;;1.60;;
6598;SDS011;3335;43.198;27.918;2022-09-20T08:29:20;1.90;;;1.43;;
6598;SDS011;3335;43.198;27.918;2022-09-20T08:31:47;3.47;;;1.50;;
6598;SDS011;3335;43.198;27.918;2022-09-20T08:34:14;3.87;;;1.50;;
6598;SDS011;3335;43.198;27.918;2022-09-20T08:36:43;1.73;;;1.30;;
6598;SDS011;3335;43.198;27.918;2022-09-20T08:39:14;2.40;;;1.50;;
6598;SDS011;3335;43.198;27.918;2022-09-20T08:41:41;6.70;;;1.33;;
6598;SDS011;3335;43.198;27.918;2022-09-20T08:44:13;3.73;;;1.27;;
6598;SDS011;3335;43.198;27.918;2022-09-20T08:46:44;2.13;;;1.47;;
6598;SDS011;3335;43.198;27.918;2022-09-20T08:49:17;3.00;;;1.50;;
6598;SDS011;3335;43.198;27.918;2022-09-20T08:51:51;3.07;;;1.40;;
6598;SDS011;3335;43.198;27.918;2022-09-20T08:54:22;1.50;;;1.40;;
6598;SDS011;3335;43.198;27.918;2022-09-20T08:56:50;2.00;;;1.40;;
6598;SDS011;3335;43.198;27.918;2022-09-20T08:59:18;1.37;;;1.23;;
6598;SDS011;3335;43.198;27.918;2022-09-20T09:01:47;3.33;;;1.70;;
6598;SDS011;3335;43.198;27.918;2022-09-20T09:04:17;1.40;;;1.10;;
6598;SDS011;3335;43.198;27.918;2022-09-20T09:06:46;3.13;;;1.30;;
6598;SDS011;3335;43.198;27.918;2022-09-20T09:09:17;4.23;;;1.77;;
6598;SDS011;3335;43.198;27.918;2022-09-20T09:11:47;5.27;;;1.63;;
6598;SDS011;3335;43.198;27.918;2022-09-20T09:14:19;2.90;;;1.40;;
6598;SDS011;3335;43.198;27.918;2022-09-20T09:17:08;1.53;;;1.43;;
6598;SDS011;3335;43.198;27.918;2022-09-20T09:19:43;1.23;;;1.20;;
6598;SDS011;3335;43.198;27.918;2022-09-20T09:22:16;3.70;;;1.77;;
6598;SDS011;3335;43.198;27.918;2022-09-20T09:25:09;1.30;;;1.07;;
6598;SDS011;3335;43.198;27.918;2022-09-20T09:27:48;2.03;;;1.30;;
6598;SDS011;3335;43.198;27.918;2022-09-20T09:30:18;1.37;;;1.27;;
6598;SDS011;3335;43.198;27.918;2022-09-20T09:32:46;2.30;;;1.57;;
6598;SDS011;3335;43.198;27.918;2022-09-20T09:35:24;2.30;;;1.33;;
6598;SDS011;3335;43.198;27.918;2022-09-20T09:37:55;2.07;;;1.20;;
6598;SDS011;3335;43.198;27.918;2022-09-20T09:40:25;1.23;;;1.13;;
6598;SDS011;3335;43.198;27.918;2022-09-20T09:42:54;5.90;;;1.80;;
6598;SDS011;3335;43.198;27.918;2022-09-20T09:45:23;1.87;;;1.30;;
6598;SDS011;3335;43.198;27.918;2022-09-20T09:48:15;1.43;;;1.20;;
6598;SDS011;3335;43.198;27.918;2022-09-20T09:50:44;1.73;;;1.37;;
6598;SDS011;3335;43.198;27.918;2022-09-20T09:53:13;0.90;;;0.90;;
6598;SDS011;3335;43.198;27.918;2022-09-20T09:55:51;1.20;;;1.00;;
6598;SDS011;3335;43.198;27.918;2022-09-20T09:58:30;2.00;;;1.20;;
6598;SDS011;3335;43.198;27.918;2022-09-20T10:01:10;2.17;;;1.20;;
6598;SDS011;3335;43.198;27.918;2022-09-20T10:03:50;1.40;;;1.10;;
6598;SDS011;3335;43.198;27.918;2022-09-20T10:06:23;1.47;;;0.90;;
6598;SDS011;3335;43.198;27.918;2022-09-20T10:09:00;1.00;;;1.00;;
6598;SDS011;3335;43.198;27.918;2022-09-20T10:11:41;1.73;;;1.07;;
6598;SDS011;3335;43.198;27.918;2022-09-20T10:14:25;0.90;;;0.90;;
6598;SDS011;3335;43.198;27.918;2022-09-20T10:17:11;0.90;;;0.90;;
6598;SDS011;3335;43.198;27.918;2022-09-20T10:19:54;0.80;;;0.80;;
6598;SDS011;3335;43.198;27.918;2022-09-20T10:22:30;1.80;;;0.77;;
6598;SDS011;3335;43.198;27.918;2022-09-20T10:25:14;1.43;;;0.90;;
6598;SDS011;3335;43.198;27.918;2022-09-20T10:27:55;1.13;;;1.03;;
6598;SDS011;3335;43.198;27.918;2022-09-20T10:30:34;0.80;;;0.80;;
6598;SDS011;3335;43.198;27.918;2022-09-20T10:33:15;3.03;;;1.10;;
6598;SDS011;3335;43.198;27.918;2022-09-20T10:35:54;1.10;;;1.00;;
6598;SDS011;3335;43.198;27.918;2022-09-20T10:38:31;1.00;;;1.00;;
6598;SDS011;3335;43.198;27.918;2022-09-20T10:41:06;0.73;;;0.73;;
6598;SDS011;3335;43.198;27.918;2022-09-20T10:46:58;0.80;;;0.80;;
6598;SDS011;3335;43.198;27.918;2022-09-20T10:49:33;0.93;;;0.80;;
6598;SDS011;3335;43.198;27.918;2022-09-20T10:52:14;1.37;;;1.00;;
6598;SDS011;3335;43.198;27.918;2022-09-20T10:55:12;0.80;;;0.80;;
6598;SDS011;3335;43.198;27.918;2022-09-20T10:57:59;1.03;;;0.97;;
6598;SDS011;3335;43.198;27.918;2022-09-20T11:01:02;0.70;;;0.70;;
6598;SDS011;3335;43.198;27.918;2022-09-20T11:03:41;1.30;;;0.90;;
6598;SDS011;3335;43.198;27.918;2022-09-20T11:06:31;0.70;;;0.70;;
6598;SDS011;3335;43.198;27.918;2022-09-20T11:09:09;0.80;;;0.70;;
6598;SDS011;3335;43.198;27.918;2022-09-20T11:11:41;0.90;;;0.90;;
6598;SDS011;3335;43.198;27.918;2022-09-20T11:14:13;1.07;;;1.00;;
6598;SDS011;3335;43.198;27.918;2022-09-20T11:16:47;0.90;;;0.90;;
6598;SDS011;3335;43.198;27.918;2022-09-20T11:19:21;1.93;;;1.00;;
6598;SDS011;3335;43.198;27.918;2022-09-20T11:21:52;1.17;;;1.00;;
6598;SDS011;3335;43.198;27.918;2022-09-20T11:24:26;1.00;;;1.00;;
6598;SDS011;3335;43.198;27.918;2022-09-20T11:26:58;0.93;;;0.93;;
6598;SDS011;3335;43.198;27.918;2022-09-20T11:29:32;0.90;;;0.90;;
6598;SDS011;3335;43.198;27.918;2022-09-20T11:32:07;1.20;;;1.10;;
6598;SDS011;3335;43.198;27.918;2022-09-20T11:34:43;2.30;;;0.80;;
6598;SDS011;3335;43.198;27.918;2022-09-20T11:37:17;2.83;;;1.10;;
6598;SDS011;3335;43.198;27.918;2022-09-20T11:39:46;3.60;;;1.20;;
6598;SDS011;3335;43.198;27.918;2022-09-20T11:42:19;0.87;;;0.87;;
6598;SDS011;3335;43.198;27.918;2022-09-20T11:44:50;1.83;;;1.10;;
6598;SDS011;3335;43.198;27.918;2022-09-20T11:47:21;3.03;;;1.10;;
6598;SDS011;3335;43.198;27.918;2022-09-20T11:50:01;1.20;;;1.10;;
6598;SDS011;3335;43.198;27.918;2022-09-20T11:52:59;0.70;;;0.70;;
6598;SDS011;3335;43.198;27.918;2022-09-20T11:55:38;0.80;;;0.80;;
6598;SDS011;3335;43.198;27.918;2022-09-20T11:58:12;0.90;;;0.90;;
6598;SDS011;3335;43.198;27.918;2022-09-20T12:00:42;2.23;;;1.00;;
6598;SDS011;3335;43.198;27.918;2022-09-20T12:03:21;0.77;;;0.77;;
6598;SDS011;3335;43.198;27.918;2022-09-20T12:05:57;1.03;;;0.90;;
6598;SDS011;3335;43.198;27.918;2022-09-20T12:08:27;3.27;;;1.20;;
6598;SDS011;3335;43.198;27.918;2022-09-20T12:10:57;2.03;;;1.10;;
6598;SDS011;3335;43.198;27.918;2022-09-20T12:13:28;4.63;;;1.10;;
6598;SDS011;3335;43.198;27.918;2022-09-20T12:15:58;0.90;;;0.90;;
6598;SDS011;3335;43.198;27.918;2022-09-20T12:18:30;0.70;;;0.70;;
6598;SDS011;3335;43.198;27.918;2022-09-20T12:21:10;2.43;;;0.90;;
6598;SDS011;3335;43.198;27.918;2022-09-20T12:26:47;1.13;;;0.90;;
6598;SDS011;3335;43.198;27.918;2022-09-20T12:41:46;1.17;;;1.07;;
6598;SDS011;3335;43.198;27.918;2022-09-20T12:44:25;7.93;;;1.00;;
6598;SDS011;3335;43.198;27.918;2022-09-20T12:46:56;2.10;;;1.20;;
6598;SDS011;3335;43.198;27.918;2022-09-20T12:52:48;2.27;;;1.00;;
6598;SDS011;3335;43.198;27.918;2022-09-20T12:55:29;1.40;;;0.97;;
6598;SDS011;3335;43.198;27.918;2022-09-20T12:58:05;0.70;;;0.70;;
6598;SDS011;3335;43.198;27.918;2022-09-20T13:00:45;0.80;;;0.80;;
6598;SDS011;3335;43.198;27.918;2022-09-20T13:03:21;1.57;;;0.77;;
6598;SDS011;3335;43.198;27.918;2022-09-20T13:09:04;5.00;;;1.40;;
6598;SDS011;3335;43.198;27.918;2022-09-20T13:11:35;3.80;;;2.57;;
6598;SDS011;3335;43.198;27.918;2022-09-20T13:14:09;7.43;;;2.30;;
6598;SDS011;3335;43.198;27.918;2022-09-20T13:16:45;2.57;;;1.40;;
6598;SDS011;3335;43.198;27.918;2022-09-20T13:19:18;1.60;;;1.30;;
6598;SDS011;3335;43.198;27.918;2022-09-20T13:21:49;2.30;;;1.50;;
6598;SDS011;3335;43.198;27.918;2022-09-20T13:24:22;2.00;;;1.27;;
6598;SDS011;3335;43.198;27.918;2022-09-20T13:26:51;3.93;;;1.53;;
6598;SDS011;3335;43.198;27.918;2022-09-20T13:29:21;1.87;;;1.70;;
6598;SDS011;3335;43.198;27.918;2022-09-20T13:31:56;2.47;;;1.60;;
6598;SDS011;3335;43.198;27.918;2022-09-20T13:34:41;1.00;;;1.00;;
6598;SDS011;3335;43.198;27.918;2022-09-20T13:37:12;2.43;;;1.20;;
6598;SDS011;3335;43.198;27.918;2022-09-20T13:39:46;3.90;;;1.27;;
6598;SDS011;3335;43.198;27.918;2022-09-20T13:42:19;1.13;;;1.00;;
6598;SDS011;3335;43.198;27.918;2022-09-20T13:44:47;2.23;;;1.47;;
6598;SDS011;3335;43.198;27.918;2022-09-20T13:47:22;1.00;;;0.87;;
6598;SDS011;3335;43.198;27.918;2022-09-20T13:49:53;2.10;;;1.20;;
6598;SDS011;3335;43.198;27.918;2022-09-20T13:52:27;5.43;;;0.90;;
6598;SDS011;3335;43.198;27.918;2022-09-20T13:54:57;0.80;;;0.80;;
6598;SDS011;3335;43.198;27.918;2022-09-20T13:57:25;1.00;;;0.90;;
6598;SDS011;3335;43.198;27.918;2022-09-20T13:59:54;1.93;;;0.90;;
6598;SDS011;3335;43.198;27.918;2022-09-20T14:02:23;2.10;;;0.97;;
6598;SDS011;3335;43.198;27.918;2022-09-20T14:04:53;1.77;;;1.20;;
6598;SDS011;3335;43.198;27.918;2022-09-20T14:07:23;2.90;;;1.27;;
6598;SDS011;3335;43.198;27.918;2022-09-20T14:09:52;3.27;;;1.40;;
6598;SDS011;3335;43.198;27.918;2022-09-20T14:12:20;2.40;;;1.30;;
6598;SDS011;3335;43.198;27.918;2022-09-20T14:14:49;2.00;;;1.10;;
6598;SDS011;3335;43.198;27.918;2022-09-20T14:17:17;2.60;;;1.43;;
6598;SDS011;3335;43.198;27.918;2022-09-20T14:19:49;1.50;;;1.20;;
6598;SDS011;3335;43.198;27.918;2022-09-20T14:22:19;0.90;;;0.90;;
6598;SDS011;3335;43.198;27.918;2022-09-20T14:24:57;1.20;;;1.10;;
6598;SDS011;3335;43.198;27.918;2022-09-20T14:27:31;1.23;;;1.10;;
6598;SDS011;3335;43.198;27.918;2022-09-20T14:29:58;0.93;;;0.93;;
6598;SDS011;3335;43.198;27.918;2022-09-20T14:32:41;2.40;;;1.17;;
6598;SDS011;3335;43.198;27.918;2022-09-20T14:35:13;1.07;;;1.00;;
6598;SDS011;3335;43.198;27.918;2022-09-20T14:37:44;0.90;;;0.90;;
6598;SDS011;3335;43.198;27.918;2022-09-20T14:40:23;2.97;;;1.07;;
6598;SDS011;3335;43.198;27.918;2022-09-20T14:42:54;1.50;;;0.90;;
6598;SDS011;3335;43.198;27.918;2022-09-20T14:45:24;8.00;;;2.90;;
6598;SDS011;3335;43.198;27.918;2022-09-20T14:47:54;1.43;;;1.10;;
6598;SDS011;3335;43.198;27.918;2022-09-20T14:50:24;3.90;;;1.00;;
6598;SDS011;3335;43.198;27.918;2022-09-20T14:53:02;1.30;;;0.87;;
6598;SDS011;3335;43.198;27.918;2022-09-20T14:56:00;0.83;;;0.80;;
6598;SDS011;3335;43.198;27.918;2022-09-20T15:01:39;2.40;;;1.50;;
6598;SDS011;3335;43.198;27.918;2022-09-20T15:04:50;1.53;;;1.37;;
6598;SDS011;3335;43.198;27.918;2022-09-20T15:07:18;2.00;;;1.10;;
6598;SDS011;3335;43.198;27.918;2022-09-20T15:09:45;3.17;;;1.20;;
6598;SDS011;3335;43.198;27.918;2022-09-20T15:12:13;4.90;;;1.30;;
6598;SDS011;3335;43.198;27.918;2022-09-20T15:14:43;2.63;;;0.93;;
6598;SDS011;3335;43.198;27.918;2022-09-20T15:17:12;1.20;;;1.10;;
6598;SDS011;3335;43.198;27.918;2022-09-20T15:19:41;1.60;;;1.50;;
6598;SDS011;3335;43.198;27.918;2022-09-20T15:22:08;4.83;;;0.97;;
6598;SDS011;3335;43.198;27.918;2022-09-20T15:24:36;1.90;;;1.17;;
6598;SDS011;3335;43.198;27.918;2022-09-20T15:27:03;1.03;;;0.87;;
6598;SDS011;3335;43.198;27.918;2022-09-20T15:29:30;2.83;;;1.27;;
6598;SDS011;3335;43.198;27.918;2022-09-20T15:31:59;2.30;;;1.10;;
6598;SDS011;3335;43.198;27.918;2022-09-20T15:34:27;4.97;;;1.10;;
6598;SDS011;3335;43.198;27.918;2022-09-20T15:36:53;6.27;;;1.70;;
6598;SDS011;3335;43.198;27.918;2022-09-20T15:39:20;2.17;;;1.80;;
6598;SDS011;3335;43.198;27.918;2022-09-20T15:41:50;3.33;;;1.40;;
6598;SDS011;3335;43.198;27.918;2022-09-20T15:44:17;1.43;;;0.90;;
6598;SDS011;3335;43.198;27.918;2022-09-20T15:46:44;2.23;;;0.93;;
6598;SDS011;3335;43.198;27.918;2022-09-20T15:49:14;2.73;;;1.80;;
6598;SDS011;3335;43.198;27.918;2022-09-20T15:51:41;1.90;;;1.10;;
6598;SDS011;3335;43.198;27.918;2022-09-20T15:54:09;2.03;;;0.97;;
6598;SDS011;3335;43.198;27.918;2022-09-20T15:56:39;3.23;;;1.20;;
6598;SDS011;3335;43.198;27.918;2022-09-20T15:59:07;1.83;;;1.40;;
6598;SDS011;3335;43.198;27.918;2022-09-20T16:01:35;1.60;;;1.10;;
6598;SDS011;3335;43.198;27.918;2022-09-20T16:04:04;2.87;;;1.57;;
6598;SDS011;3335;43.198;27.918;2022-09-20T16:06:35;2.40;;;1.30;;
6598;SDS011;3335;43.198;27.918;2022-09-20T16:09:03;2.40;;;1.30;;
6598;SDS011;3335;43.198;27.918;2022-09-20T16:11:30;1.50;;;1.33;;
6598;SDS011;3335;43.198;27.918;2022-09-20T16:13:58;5.87;;;1.30;;
6598;SDS011;3335;43.198;27.918;2022-09-20T16:16:26;1.77;;;1.37;;
6598;SDS011;3335;43.198;27.918;2022-09-20T16:18:54;3.67;;;1.33;;
6598;SDS011;3335;43.198;27.918;2022-09-20T16:21:40;2.10;;;1.17;;
6598;SDS011;3335;43.198;27.918;2022-09-20T16:24:09;2.47;;;1.87;;
6598;SDS011;3335;43.198;27.918;2022-09-20T16:26:37;4.33;;;2.13;;
6598;SDS011;3335;43.198;27.918;2022-09-20T16:29:05;4.70;;;2.50;;
6598;SDS011;3335;43.198;27.918;2022-09-20T16:31:33;6.93;;;2.43;;
6598;SDS011;3335;43.198;27.918;2022-09-20T16:34:05;8.97;;;3.57;;
6598;SDS011;3335;43.198;27.918;2022-09-20T16:36:35;3.30;;;2.50;;
6598;SDS011;3335;43.198;27.918;2022-09-20T16:39:04;3.33;;;2.20;;
6598;SDS011;3335;43.198;27.918;2022-09-20T16:41:31;4.80;;;3.10;;
6598;SDS011;3335;43.198;27.918;2022-09-20T16:43:58;8.90;;;5.07;;